Terminal Aerodrome Forecast
Issued by NWS Charleston, WV

Home | Current Version | Previous Version | Text Only | Print | Product List | Glossary On
Versions: 1 2 3 4 5 6 7 8 9 10 11 12 13 14 15 16 17 18 19 20 21
000
FTUS41 KRLX 020800 AAA
TAFPKB
TAF AMD
KPKB 020844Z 0209/0306 00000KT 1/4SM FG VV001
     FM021200 VRB03KT 2SM BR BKN002
     FM021300 00000KT 6SM HZ SCT080
     FM021400 VRB02KT P6SM SCT250
     FM021700 21004KT P6SM FEW050 BKN250
     FM022200 16004KT P6SM BKN250
     FM030500 14004KT P6SM BKN120=

USA.gov is the U.S. government's official web portal to all federal, state and local government web resources and services.